createdAt,value
2024-03-02T00:00:15.488Z,7.70
2024-03-02T00:02:46.086Z,7.70
2024-03-02T00:05:13.583Z,7.70
2024-03-02T00:07:42.336Z,7.70
2024-03-02T00:10:13.158Z,7.60
2024-03-02T00:12:40.450Z,7.60
2024-03-02T00:15:14.910Z,7.60
2024-03-02T00:17:41.770Z,7.70
2024-03-02T00:20:10.376Z,7.70
2024-03-02T00:22:38.367Z,7.70
2024-03-02T00:25:05.656Z,7.80
2024-03-02T00:27:33.590Z,7.80
2024-03-02T00:30:01.607Z,7.80
2024-03-02T00:32:29.517Z,7.80
2024-03-02T00:34:56.272Z,7.90
2024-03-02T00:37:23.061Z,7.90
2024-03-02T00:39:50.588Z,7.80
2024-03-02T00:42:17.380Z,7.90
2024-03-02T00:44:44.097Z,7.80
2024-03-02T00:47:10.825Z,7.80
2024-03-02T00:49:39.072Z,7.80
2024-03-02T00:52:08.039Z,7.80
2024-03-02T00:54:35.078Z,7.80
2024-03-02T00:57:02.244Z,7.80
2024-03-02T00:59:29.155Z,7.70
2024-03-02T01:01:56.006Z,7.70
2024-03-02T01:04:22.735Z,7.60
2024-03-02T01:06:49.798Z,7.60
2024-03-02T01:09:17.741Z,7.50
2024-03-02T01:11:44.512Z,7.50
2024-03-02T01:14:11.370Z,7.50
2024-03-02T01:16:38.149Z,7.40
2024-03-02T01:19:05.252Z,7.40
2024-03-02T01:21:32.237Z,7.40
2024-03-02T01:23:59.193Z,7.30
2024-03-02T01:26:25.869Z,7.30
2024-03-02T01:28:52.552Z,7.30
2024-03-02T01:31:19.396Z,7.20
2024-03-02T01:33:46.202Z,7.20
2024-03-02T01:36:13.049Z,7.20
2024-03-02T01:38:39.742Z,7.10
2024-03-02T01:41:06.523Z,7.10
2024-03-02T01:43:33.228Z,7.10
2024-03-02T01:46:00.444Z,7.10
2024-03-02T01:48:27.276Z,7.00
2024-03-02T01:50:54.049Z,7.00
2024-03-02T01:53:20.750Z,7.00
2024-03-02T01:55:47.603Z,7.00
2024-03-02T01:58:14.640Z,7.00
2024-03-02T02:00:42.471Z,7.00
2024-03-02T02:03:09.294Z,7.00
2024-03-02T02:05:36.301Z,7.00
2024-03-02T02:08:03.220Z,7.00
2024-03-02T02:10:29.991Z,7.00
2024-03-02T02:12:56.805Z,7.00
2024-03-02T02:15:24.706Z,7.00
2024-03-02T02:17:51.656Z,7.00
2024-03-02T02:20:18.436Z,7.00
2024-03-02T02:23:01.172Z,7.00
2024-03-02T02:25:28.460Z,7.00
2024-03-02T02:27:55.732Z,7.00
2024-03-02T02:30:23.847Z,7.00
2024-03-02T02:32:50.787Z,7.10
2024-03-02T02:35:17.631Z,7.10
2024-03-02T02:37:45.011Z,7.10
2024-03-02T02:40:12.487Z,7.10
2024-03-02T02:42:39.603Z,7.10
2024-03-02T02:45:06.884Z,7.10
2024-03-02T02:47:36.179Z,7.20
2024-03-02T02:50:07.851Z,7.20
2024-03-02T02:52:37.627Z,7.10
2024-03-02T02:55:05.352Z,7.10
2024-03-02T02:57:39.849Z,7.10
2024-03-02T03:00:11.424Z,7.10
2024-03-02T03:02:39.551Z,7.00
2024-03-02T03:05:10.231Z,7.00
2024-03-02T03:07:37.582Z,6.90
2024-03-02T03:10:05.261Z,6.90
2024-03-02T03:12:35.279Z,6.90
2024-03-02T03:15:02.479Z,6.80
2024-03-02T03:17:29.707Z,6.80
2024-03-02T03:19:56.610Z,6.70
2024-03-02T03:22:23.524Z,6.70
2024-03-02T03:24:50.247Z,6.60
2024-03-02T03:27:17.024Z,6.60
2024-03-02T03:29:43.744Z,6.50
2024-03-02T03:32:10.476Z,6.50
2024-03-02T03:34:37.438Z,6.60
2024-03-02T03:37:04.267Z,6.50
2024-03-02T03:39:30.943Z,6.50
2024-03-02T03:41:57.728Z,6.40
2024-03-02T03:44:24.685Z,6.40
2024-03-02T03:46:51.374Z,6.40
2024-03-02T03:49:18.519Z,6.30
2024-03-02T03:51:45.399Z,6.30
2024-03-02T03:54:12.407Z,6.30
2024-03-02T03:56:39.326Z,6.30
2024-03-02T03:59:06.076Z,6.30
2024-03-02T04:01:33.027Z,6.30
2024-03-02T04:03:59.868Z,6.30
2024-03-02T04:06:26.834Z,6.30
2024-03-02T04:08:54.356Z,6.30
2024-03-02T04:11:21.092Z,6.30
2024-03-02T04:13:47.804Z,6.20
2024-03-02T04:16:14.448Z,6.20
2024-03-02T04:18:41.148Z,6.20
2024-03-02T04:21:08.063Z,6.20
2024-03-02T04:23:34.773Z,6.10
2024-03-02T04:26:01.482Z,6.10
2024-03-02T04:28:28.175Z,6.10
2024-03-02T04:30:54.986Z,6.10
2024-03-02T04:33:21.964Z,6.10
2024-03-02T04:35:48.716Z,6.10
2024-03-02T04:38:15.423Z,6.00
2024-03-02T04:40:42.263Z,6.10
2024-03-02T04:43:10.508Z,6.10
2024-03-02T04:45:39.354Z,6.10
2024-03-02T04:48:06.426Z,6.10
2024-03-02T04:50:33.237Z,6.20
2024-03-02T04:52:59.932Z,6.20
2024-03-02T04:55:29.556Z,6.30
2024-03-02T04:57:57.026Z,6.30
2024-03-02T05:00:24.404Z,6.40
2024-03-02T05:02:52.389Z,6.40
2024-03-02T05:05:19.187Z,6.40
2024-03-02T05:07:46.029Z,6.40
2024-03-02T05:10:13.044Z,6.40
2024-03-02T05:12:46.057Z,6.30
2024-03-02T05:15:13.549Z,6.30
2024-03-02T05:17:40.782Z,6.30
2024-03-02T05:20:09.200Z,6.20
2024-03-02T05:22:36.519Z,6.20
2024-03-02T05:25:03.813Z,6.30
2024-03-02T05:27:30.642Z,6.20
2024-03-02T05:29:57.500Z,6.30
2024-03-02T05:32:24.429Z,6.30
2024-03-02T05:34:51.774Z,6.30
2024-03-02T05:37:18.741Z,6.30
2024-03-02T05:39:45.519Z,6.30
2024-03-02T05:42:12.498Z,6.30
2024-03-02T05:44:39.247Z,6.30
2024-03-02T05:47:06.255Z,6.30
2024-03-02T05:49:32.975Z,6.30
2024-03-02T05:51:59.722Z,6.30
2024-03-02T05:54:26.524Z,6.30
2024-03-02T05:56:53.374Z,6.20
2024-03-02T05:59:20.542Z,6.20
2024-03-02T06:01:47.952Z,6.20
2024-03-02T06:04:15.078Z,6.20
2024-03-02T06:06:41.977Z,6.20
2024-03-02T06:09:09.102Z,6.20
2024-03-02T06:11:39.368Z,6.20
2024-03-02T06:14:07.366Z,6.20
2024-03-02T06:16:36.595Z,6.20
2024-03-02T06:19:03.765Z,6.20
2024-03-02T06:21:31.137Z,6.30
2024-03-02T06:23:58.338Z,6.30
2024-03-02T06:26:26.239Z,6.30
2024-03-02T06:28:53.506Z,6.30
2024-03-02T06:31:20.398Z,6.30
2024-03-02T06:33:47.241Z,6.30
2024-03-02T06:36:14.128Z,6.30
2024-03-02T06:38:43.534Z,6.30
2024-03-02T06:41:10.661Z,6.40
2024-03-02T06:43:37.635Z,6.40
2024-03-02T06:46:04.620Z,6.40
2024-03-02T06:48:31.713Z,6.40
2024-03-02T06:51:01.366Z,6.40
2024-03-02T06:53:28.474Z,6.40
2024-03-02T06:55:57.497Z,6.40
2024-03-02T06:58:24.770Z,6.40
2024-03-02T07:00:54.034Z,6.50
2024-03-02T07:03:20.891Z,6.60
2024-03-02T07:05:49.553Z,6.50
2024-03-02T07:08:16.465Z,6.60
2024-03-02T07:10:43.093Z,6.60
2024-03-02T07:13:09.871Z,6.60
2024-03-02T07:15:55.375Z,6.70
2024-03-02T07:18:22.402Z,6.80
2024-03-02T07:20:53.432Z,6.90
2024-03-02T07:23:22.777Z,7.00
2024-03-02T07:28:19.300Z,7.20
2024-03-02T07:30:45.959Z,7.30
2024-03-02T07:33:13.044Z,7.40
2024-03-02T07:35:39.893Z,7.50
2024-03-02T07:38:06.934Z,7.60
2024-03-02T07:40:33.806Z,7.60
2024-03-02T07:43:00.633Z,7.70
2024-03-02T07:45:27.381Z,7.80
2024-03-02T07:47:54.652Z,7.90
2024-03-02T07:50:21.423Z,8.00
2024-03-02T07:52:48.372Z,8.10
2024-03-02T07:55:15.272Z,8.20
2024-03-02T07:57:42.128Z,8.30
2024-03-02T08:00:10.422Z,8.40
2024-03-02T08:02:41.315Z,8.40
2024-03-02T08:05:08.206Z,8.50
2024-03-02T08:07:35.421Z,8.60
2024-03-02T08:10:02.358Z,8.60
2024-03-02T08:12:29.098Z,8.60
2024-03-02T08:14:55.867Z,8.60
2024-03-02T08:17:22.819Z,8.60
2024-03-02T08:19:49.555Z,8.60
2024-03-02T08:22:16.450Z,8.60
2024-03-02T08:24:43.526Z,8.60
2024-03-02T08:27:10.503Z,8.60
2024-03-02T08:29:37.386Z,8.60
2024-03-02T08:32:04.456Z,8.60
2024-03-02T08:34:31.276Z,8.60
2024-03-02T08:36:58.194Z,8.60
2024-03-02T08:39:24.951Z,8.70
2024-03-02T08:41:52.460Z,8.70
2024-03-02T08:44:19.330Z,8.80
2024-03-02T08:46:46.237Z,8.80
2024-03-02T08:49:13.356Z,8.90
2024-03-02T08:51:40.215Z,9.00
2024-03-02T08:54:07.262Z,9.10
2024-03-02T08:56:34.060Z,9.10
2024-03-02T08:59:00.904Z,9.20
2024-03-02T09:01:27.844Z,9.20
2024-03-02T09:03:54.797Z,9.20
2024-03-02T09:06:22.302Z,9.20
2024-03-02T09:08:50.655Z,9.20
2024-03-02T09:11:17.343Z,9.20
2024-03-02T09:13:44.987Z,9.20
2024-03-02T09:16:12.532Z,9.10
2024-03-02T09:18:39.481Z,9.20
2024-03-02T09:21:06.839Z,9.20
2024-03-02T09:23:33.665Z,9.20
2024-03-02T09:26:00.924Z,9.30
2024-03-02T09:28:27.664Z,9.30
2024-03-02T09:30:56.836Z,9.40
2024-03-02T09:33:24.634Z,9.40
2024-03-02T09:35:52.727Z,9.50
2024-03-02T09:38:20.649Z,9.60
2024-03-02T09:40:47.395Z,9.70
2024-03-02T09:43:14.725Z,9.70
2024-03-02T09:45:41.778Z,9.70
2024-03-02T09:48:08.849Z,9.80
2024-03-02T09:50:35.671Z,9.90
2024-03-02T09:53:03.059Z,10.00
2024-03-02T09:55:29.792Z,10.10
2024-03-02T09:57:57.266Z,10.10
2024-03-02T10:00:24.027Z,10.20
2024-03-02T10:02:50.903Z,10.20
2024-03-02T10:05:29.378Z,10.30
2024-03-02T10:08:03.168Z,10.30
2024-03-02T10:10:37.148Z,10.40
2024-03-02T10:13:07.600Z,10.40
2024-03-02T10:15:34.865Z,10.50
2024-03-02T10:18:01.860Z,10.70
2024-03-02T10:20:33.784Z,10.70
2024-03-02T10:23:17.500Z,10.80
2024-03-02T10:25:51.953Z,10.90
2024-03-02T10:28:25.045Z,11.00
2024-03-02T10:30:54.436Z,11.00
2024-03-02T10:33:21.689Z,11.10
2024-03-02T10:35:49.828Z,11.10
2024-03-02T10:38:16.631Z,11.20
2024-03-02T10:40:47.667Z,11.30
2024-03-02T10:43:14.605Z,11.30
2024-03-02T10:45:41.320Z,11.20
2024-03-02T10:48:08.553Z,11.30
2024-03-02T10:50:35.228Z,11.40
2024-03-02T10:53:02.230Z,11.40
2024-03-02T10:55:29.200Z,11.50
2024-03-02T10:57:57.624Z,11.50
2024-03-02T11:00:28.052Z,11.60
2024-03-02T11:02:58.928Z,11.60
2024-03-02T11:05:30.506Z,11.60
2024-03-02T11:08:02.237Z,11.60
2024-03-02T11:10:37.792Z,11.70
2024-03-02T11:13:10.067Z,11.80
2024-03-02T11:15:40.056Z,11.80
2024-03-02T11:18:10.318Z,11.90
2024-03-02T11:20:39.515Z,11.90
2024-03-02T11:23:07.694Z,11.90
2024-03-02T11:25:34.646Z,12.00
2024-03-02T11:28:07.736Z,12.00
2024-03-02T11:30:35.560Z,12.10
2024-03-02T11:33:11.482Z,12.10
2024-03-02T11:35:43.920Z,12.20
2024-03-02T11:38:11.049Z,12.10
2024-03-02T11:40:39.878Z,12.20
2024-03-02T11:43:07.497Z,12.20
2024-03-02T11:45:34.857Z,12.20
2024-03-02T11:48:02.036Z,12.30
2024-03-02T11:50:31.922Z,12.40
2024-03-02T11:52:59.305Z,12.50
2024-03-02T11:55:30.097Z,12.50
2024-03-02T11:57:57.226Z,12.50
2024-03-02T12:00:24.123Z,12.60
2024-03-02T12:03:07.133Z,12.60
2024-03-02T12:05:34.274Z,12.70
2024-03-02T12:08:01.727Z,12.70
2024-03-02T12:10:29.131Z,12.70
2024-03-02T12:13:07.661Z,12.80
2024-03-02T12:15:35.574Z,12.80
2024-03-02T12:18:03.121Z,12.90
2024-03-02T12:20:32.036Z,12.90
2024-03-02T12:22:59.622Z,12.90
2024-03-02T12:25:26.856Z,13.00
2024-03-02T12:27:55.302Z,13.00
2024-03-02T12:30:22.633Z,13.10
2024-03-02T12:32:49.996Z,13.10
2024-03-02T12:35:18.412Z,13.10
2024-03-02T12:37:49.698Z,13.20
2024-03-02T12:40:19.227Z,13.30
2024-03-02T12:42:46.839Z,13.40
2024-03-02T12:45:14.101Z,13.40
2024-03-02T12:47:41.412Z,13.40
2024-03-02T12:50:08.884Z,13.50
2024-03-02T12:52:35.921Z,13.50
2024-03-02T12:55:05.200Z,13.50
2024-03-02T12:57:33.204Z,13.60
2024-03-02T13:00:00.541Z,13.60
2024-03-02T13:02:31.940Z,13.70
2024-03-02T13:04:58.984Z,13.70
2024-03-02T13:07:26.406Z,13.70
2024-03-02T13:09:53.677Z,13.70
2024-03-02T13:12:20.586Z,13.70
2024-03-02T13:14:53.724Z,13.80
2024-03-02T13:17:20.768Z,13.80
2024-03-02T13:19:54.362Z,13.80
2024-03-02T13:22:21.663Z,13.90
2024-03-02T13:24:49.202Z,13.90
2024-03-02T13:27:17.027Z,13.90
2024-03-02T13:29:43.926Z,13.90
2024-03-02T13:32:10.961Z,14.00
2024-03-02T13:34:38.362Z,14.00
2024-03-02T13:37:06.790Z,13.90
2024-03-02T13:39:33.882Z,13.80
2024-03-02T13:42:08.779Z,13.70
2024-03-02T13:44:35.675Z,13.70
2024-03-02T13:47:02.655Z,13.60
2024-03-02T13:49:38.662Z,13.70
2024-03-02T13:52:13.416Z,13.80
2024-03-02T13:54:44.587Z,13.80
2024-03-02T13:57:11.853Z,13.80
2024-03-02T13:59:39.059Z,13.90
2024-03-02T14:02:09.415Z,13.90
2024-03-02T14:04:56.490Z,14.00
2024-03-02T14:07:23.270Z,13.90
2024-03-02T14:09:50.097Z,13.90
2024-03-02T14:12:17.104Z,13.90
2024-03-02T14:14:43.834Z,13.90
2024-03-02T14:17:15.692Z,13.80
2024-03-02T14:19:42.602Z,13.80
2024-03-02T14:22:09.545Z,13.80
2024-03-02T14:24:36.446Z,13.70
2024-03-02T14:27:10.990Z,13.70
2024-03-02T14:29:46.964Z,13.70
2024-03-02T14:32:13.629Z,13.70
2024-03-02T14:34:40.785Z,13.70
2024-03-02T14:37:07.777Z,13.70
2024-03-02T14:39:36.065Z,13.70
2024-03-02T14:42:03.164Z,13.70
2024-03-02T14:44:29.982Z,13.70
2024-03-02T14:46:56.730Z,13.70
2024-03-02T14:49:23.832Z,13.70
2024-03-02T14:51:50.886Z,13.70
2024-03-02T14:54:17.926Z,13.70
2024-03-02T14:56:45.104Z,13.60
2024-03-02T14:59:12.155Z,13.70
2024-03-02T15:01:39.129Z,13.60
2024-03-02T15:04:06.460Z,13.60
2024-03-02T15:06:34.153Z,13.60
2024-03-02T15:09:02.681Z,13.50
2024-03-02T15:11:31.319Z,13.50
2024-03-02T15:13:58.140Z,13.50
2024-03-02T15:16:25.544Z,13.50
2024-03-02T15:18:52.438Z,13.50
2024-03-02T15:21:21.137Z,13.50
2024-03-02T15:23:49.264Z,13.40
2024-03-02T15:26:16.697Z,13.40
2024-03-02T15:28:43.994Z,13.40
2024-03-02T15:31:10.736Z,13.40
2024-03-02T15:33:38.029Z,13.30
2024-03-02T15:36:05.947Z,13.40
2024-03-02T15:38:35.597Z,13.40
2024-03-02T15:41:07.507Z,13.40
2024-03-02T15:43:40.091Z,13.30
2024-03-02T15:46:08.098Z,13.30
2024-03-02T15:48:35.987Z,13.30
2024-03-02T15:51:06.523Z,13.30
2024-03-02T15:53:34.078Z,13.30
2024-03-02T15:56:00.763Z,13.30
2024-03-02T15:58:27.704Z,13.30
2024-03-02T16:00:54.904Z,13.20
2024-03-02T16:03:22.063Z,13.20
2024-03-02T16:05:48.913Z,13.30
2024-03-02T16:08:16.085Z,13.30
2024-03-02T16:10:43.013Z,13.20
2024-03-02T16:13:10.157Z,13.20
2024-03-02T16:15:37.003Z,13.10
2024-03-02T16:18:04.134Z,13.10
2024-03-02T16:20:31.212Z,13.10
2024-03-02T16:22:58.277Z,13.00
2024-03-02T16:25:25.840Z,13.00
2024-03-02T16:27:53.236Z,13.00
2024-03-02T16:30:25.646Z,12.90
2024-03-02T16:32:52.581Z,12.90
2024-03-02T16:35:19.296Z,12.80
2024-03-02T16:37:47.205Z,12.80
2024-03-02T16:40:16.955Z,12.70
2024-03-02T16:42:43.891Z,12.70
2024-03-02T16:45:10.704Z,12.70
2024-03-02T16:47:37.524Z,12.60
2024-03-02T16:50:08.068Z,12.60
2024-03-02T16:52:34.895Z,12.50
2024-03-02T16:55:04.770Z,12.50
2024-03-02T16:57:32.649Z,12.40
2024-03-02T16:59:59.932Z,12.40
2024-03-02T17:02:27.191Z,12.30
2024-03-02T17:04:54.327Z,12.30
2024-03-02T17:07:21.396Z,12.30
2024-03-02T17:09:48.459Z,12.20
2024-03-02T17:12:15.712Z,12.20
2024-03-02T17:14:42.638Z,12.10
2024-03-02T17:17:09.433Z,12.10
2024-03-02T17:19:36.660Z,12.00
2024-03-02T17:22:03.472Z,12.10
2024-03-02T17:24:30.333Z,12.00
2024-03-02T17:26:59.201Z,12.00
2024-03-02T17:29:25.957Z,12.00
2024-03-02T17:31:52.730Z,12.00
2024-03-02T17:34:19.602Z,12.00
2024-03-02T17:36:46.572Z,11.90
2024-03-02T17:39:13.316Z,11.90
2024-03-02T17:41:40.113Z,11.90
2024-03-02T17:44:07.250Z,11.90
2024-03-02T17:46:34.028Z,11.80
2024-03-02T17:49:00.959Z,11.80
2024-03-02T17:51:27.860Z,11.70
2024-03-02T17:53:54.522Z,11.70
2024-03-02T17:56:21.323Z,11.70
2024-03-02T17:58:48.138Z,11.70
2024-03-02T18:01:16.447Z,11.60
2024-03-02T18:03:43.552Z,11.60
2024-03-02T18:06:10.546Z,11.50
2024-03-02T18:08:39.219Z,11.50
2024-03-02T18:11:07.848Z,11.50
2024-03-02T18:13:35.145Z,11.50
2024-03-02T18:16:02.750Z,11.50
2024-03-02T18:18:29.694Z,11.50
2024-03-02T18:20:56.587Z,11.50
2024-03-02T18:23:23.485Z,11.50
2024-03-02T18:25:50.259Z,11.50
2024-03-02T18:28:17.321Z,11.50
2024-03-02T18:30:44.174Z,11.50
2024-03-02T18:33:10.896Z,11.50
2024-03-02T18:35:37.880Z,11.50
2024-03-02T18:38:05.239Z,11.50
2024-03-02T18:40:32.110Z,11.50
2024-03-02T18:43:00.106Z,11.50
2024-03-02T18:45:27.152Z,11.50
2024-03-02T18:47:54.950Z,11.50
2024-03-02T18:50:22.023Z,11.40
2024-03-02T18:52:48.983Z,11.40
2024-03-02T18:55:15.869Z,11.40
2024-03-02T18:57:42.849Z,11.40
2024-03-02T19:00:14.024Z,11.40
2024-03-02T19:02:42.364Z,11.40
2024-03-02T19:05:09.722Z,11.40
2024-03-02T19:07:37.067Z,11.50
2024-03-02T19:10:05.979Z,11.40
2024-03-02T19:12:33.702Z,11.40
2024-03-02T19:15:01.779Z,11.40
2024-03-02T19:17:29.007Z,11.40
2024-03-02T19:19:55.691Z,11.40
2024-03-02T19:22:24.804Z,11.40
2024-03-02T19:24:51.448Z,11.40
2024-03-02T19:27:18.650Z,11.40
2024-03-02T19:29:46.016Z,11.40
2024-03-02T19:32:15.420Z,11.30
2024-03-02T19:34:47.639Z,11.30
2024-03-02T19:37:14.503Z,11.30
2024-03-02T19:39:43.156Z,11.30
2024-03-02T19:42:10.164Z,11.40
2024-03-02T19:44:36.856Z,11.30
2024-03-02T19:47:03.741Z,11.40
2024-03-02T19:49:30.721Z,11.40
2024-03-02T19:51:57.554Z,11.30
2024-03-02T19:54:24.618Z,11.40
2024-03-02T19:56:53.116Z,11.30
2024-03-02T19:59:20.006Z,11.30
2024-03-02T20:01:46.836Z,11.30
2024-03-02T20:04:13.790Z,11.30
2024-03-02T20:06:42.990Z,11.30
2024-03-02T20:09:09.753Z,11.30
2024-03-02T20:11:36.424Z,11.30
2024-03-02T20:14:03.246Z,11.20
2024-03-02T20:16:30.058Z,11.20
2024-03-02T20:18:57.094Z,11.20
2024-03-02T20:21:23.894Z,11.20
2024-03-02T20:23:50.811Z,11.20
2024-03-02T20:26:20.341Z,11.20
2024-03-02T20:28:48.919Z,11.20
2024-03-02T20:31:15.776Z,11.10
2024-03-02T20:33:42.779Z,11.10
2024-03-02T20:36:13.700Z,11.00
2024-03-02T20:38:41.522Z,11.00
2024-03-02T20:41:18.340Z,11.00
2024-03-02T20:43:45.615Z,10.90
2024-03-02T20:46:12.866Z,10.90
2024-03-02T20:48:40.295Z,10.90
2024-03-02T20:51:09.974Z,10.80
2024-03-02T20:53:37.021Z,10.80
2024-03-02T20:56:03.874Z,10.70
2024-03-02T20:58:30.714Z,10.70
2024-03-02T21:00:57.537Z,10.70
2024-03-02T21:03:24.537Z,10.60
2024-03-02T21:05:51.243Z,10.70
2024-03-02T21:08:17.939Z,10.60
2024-03-02T21:10:46.961Z,10.60
2024-03-02T21:13:15.356Z,10.60
2024-03-02T21:15:42.135Z,10.60
2024-03-02T21:18:09.063Z,10.60
2024-03-02T21:20:36.007Z,10.60
2024-03-02T21:23:03.486Z,10.60
2024-03-02T21:25:35.045Z,10.50
2024-03-02T21:28:02.125Z,10.60
2024-03-02T21:30:31.458Z,10.60
2024-03-02T21:32:58.247Z,10.50
2024-03-02T21:35:25.082Z,10.50
2024-03-02T21:37:51.910Z,10.50
2024-03-02T21:40:20.208Z,10.40
2024-03-02T21:42:47.219Z,10.40
2024-03-02T21:45:14.234Z,10.40
2024-03-02T21:47:41.123Z,10.40
2024-03-02T21:50:08.400Z,10.40
2024-03-02T21:52:35.183Z,10.30
2024-03-02T21:55:02.078Z,10.40
2024-03-02T21:57:28.910Z,10.40
2024-03-02T21:59:55.694Z,10.40
2024-03-02T22:02:22.950Z,10.40
2024-03-02T22:04:49.766Z,10.30
2024-03-02T22:07:16.444Z,10.30
2024-03-02T22:09:43.307Z,10.30
2024-03-02T22:12:12.447Z,10.30
2024-03-02T22:14:39.415Z,10.30
2024-03-02T22:17:06.305Z,10.20
2024-03-02T22:19:32.929Z,10.30
2024-03-02T22:21:59.818Z,10.20
2024-03-02T22:24:27.874Z,10.20
2024-03-02T22:26:54.603Z,10.20
2024-03-02T22:29:21.577Z,10.20
2024-03-02T22:31:48.370Z,10.20
2024-03-02T22:34:15.177Z,10.20
2024-03-02T22:36:41.989Z,10.20
2024-03-02T22:39:09.247Z,10.20
2024-03-02T22:41:36.012Z,10.20
2024-03-02T22:44:02.712Z,10.20
2024-03-02T22:46:29.687Z,10.20
2024-03-02T22:48:56.527Z,10.20
2024-03-02T22:51:26.903Z,10.10
2024-03-02T22:53:53.817Z,10.20
2024-03-02T22:56:23.453Z,10.20
2024-03-02T22:58:50.120Z,10.20
2024-03-02T23:01:17.925Z,10.10
2024-03-02T23:03:44.773Z,10.10
2024-03-02T23:06:11.505Z,10.10
2024-03-02T23:08:38.297Z,10.10
2024-03-02T23:11:05.094Z,10.10
2024-03-02T23:13:32.137Z,10.10
2024-03-02T23:15:59.163Z,10.10
2024-03-02T23:18:26.628Z,10.10
2024-03-02T23:20:53.561Z,10.10
2024-03-02T23:23:20.271Z,10.10
2024-03-02T23:25:47.711Z,10.10
2024-03-02T23:28:14.611Z,10.10
2024-03-02T23:30:41.416Z,10.10
2024-03-02T23:33:08.173Z,10.10
2024-03-02T23:35:34.978Z,10.10
2024-03-02T23:38:01.740Z,10.00
2024-03-02T23:40:51.447Z,10.00
2024-03-02T23:43:18.344Z,10.00
2024-03-02T23:45:45.189Z,10.00
2024-03-02T23:48:12.051Z,10.00
2024-03-02T23:50:38.805Z,9.90
2024-03-02T23:53:05.600Z,10.00
2024-03-02T23:55:42.918Z,9.90
2024-03-02T23:58:18.381Z,9.90
